sensor_id;sensor_type;location;lat;lon;timestamp;pressure;altitude;pressure_sealevel;temperature;humidity
54854;BME280;40747;49.480;8.658;2023-03-16T00:01:36;100816.78;;;1.35;100.00
54854;BME280;40747;49.480;8.658;2023-03-16T00:04:01;100812.56;;;1.43;100.00
54854;BME280;40747;49.480;8.658;2023-03-16T00:06:26;100822.31;;;1.58;100.00
54854;BME280;40747;49.480;8.658;2023-03-16T00:08:51;100819.69;;;1.56;100.00
54854;BME280;40747;49.480;8.658;2023-03-16T00:11:23;100820.56;;;1.58;100.00
54854;BME280;40747;49.480;8.658;2023-03-16T00:13:48;100823.25;;;1.63;100.00
54854;BME280;40747;49.480;8.658;2023-03-16T00:16:13;100819.81;;;1.66;100.00
54854;BME280;40747;49.480;8.658;2023-03-16T00:18:41;100825.03;;;1.67;100.00
54854;BME280;40747;49.480;8.658;2023-03-16T00:21:06;100822.31;;;1.58;100.00
54854;BME280;40747;49.480;8.658;2023-03-16T00:23:32;100831.88;;;1.62;100.00
54854;BME280;40747;49.480;8.658;2023-03-16T00:26:01;100824.88;;;1.56;100.00
54854;BME280;40747;49.480;8.658;2023-03-16T00:28:28;100827.44;;;1.55;100.00
54854;BME280;40747;49.480;8.658;2023-03-16T00:30:59;100829.91;;;1.45;100.00
54854;BME280;40747;49.480;8.658;2023-03-16T00:33:25;100823.63;;;1.31;100.00
54854;BME280;40747;49.480;8.658;2023-03-16T00:35:50;100824.59;;;1.38;99.54
54854;BME280;40747;49.480;8.658;2023-03-16T00:38:26;100820.31;;;1.38;99.96
54854;BME280;40747;49.480;8.658;2023-03-16T00:40:52;100823.69;;;1.34;99.31
54854;BME280;40747;49.480;8.658;2023-03-16T00:43:17;100820.25;;;1.35;99.45
54854;BME280;40747;49.480;8.658;2023-03-16T00:45:43;100819.41;;;1.38;100.00
54854;BME280;40747;49.480;8.658;2023-03-16T00:48:09;100814.84;;;1.21;100.00
54854;BME280;40747;49.480;8.658;2023-03-16T00:50:36;100807.53;;;0.97;100.00
54854;BME280;40747;49.480;8.658;2023-03-16T00:53:01;100805.59;;;0.84;100.00
54854;BME280;40747;49.480;8.658;2023-03-16T00:55:26;100794.25;;;0.77;100.00
54854;BME280;40747;49.480;8.658;2023-03-16T00:57:52;100790.63;;;0.69;100.00
54854;BME280;40747;49.480;8.658;2023-03-16T01:00:19;100812.41;;;0.78;100.00
54854;BME280;40747;49.480;8.658;2023-03-16T01:02:46;100810.63;;;0.74;100.00
54854;BME280;40747;49.480;8.658;2023-03-16T01:05:12;100798.50;;;0.73;100.00
54854;BME280;40747;49.480;8.658;2023-03-16T01:07:39;100796.53;;;0.60;100.00
54854;BME280;40747;49.480;8.658;2023-03-16T01:10:05;100802.47;;;0.53;100.00
54854;BME280;40747;49.480;8.658;2023-03-16T01:12:31;100795.69;;;0.62;100.00
54854;BME280;40747;49.480;8.658;2023-03-16T01:14:58;100805.31;;;0.68;100.00
54854;BME280;40747;49.480;8.658;2023-03-16T01:17:23;100805.31;;;0.68;100.00
54854;BME280;40747;49.480;8.658;2023-03-16T01:19:48;100772.44;;;0.64;100.00
54854;BME280;40747;49.480;8.658;2023-03-16T01:22:14;100786.25;;;0.66;100.00
54854;BME280;40747;49.480;8.658;2023-03-16T01:24:41;100784.50;;;0.65;100.00
54854;BME280;40747;49.480;8.658;2023-03-16T01:27:09;100786.34;;;0.71;100.00
54854;BME280;40747;49.480;8.658;2023-03-16T01:29:34;100789.81;;;0.71;100.00
54854;BME280;40747;49.480;8.658;2023-03-16T01:32:00;100780.34;;;0.72;100.00
54854;BME280;40747;49.480;8.658;2023-03-16T01:34:26;100780.63;;;0.90;100.00
54854;BME280;40747;49.480;8.658;2023-03-16T01:36:51;100793.69;;;0.96;100.00
54854;BME280;40747;49.480;8.658;2023-03-16T01:39:17;100793.50;;;0.86;100.00
54854;BME280;40747;49.480;8.658;2023-03-16T01:41:43;100786.59;;;0.85;100.00
54854;BME280;40747;49.480;8.658;2023-03-16T01:44:14;100793.38;;;0.78;100.00
54854;BME280;40747;49.480;8.658;2023-03-16T01:46:40;100786.66;;;0.91;100.00
54854;BME280;40747;49.480;8.658;2023-03-16T01:54:24;100783.47;;;1.07;100.00
54854;BME280;40747;49.480;8.658;2023-03-16T01:59:52;100769.78;;;1.18;100.00
54854;BME280;40747;49.480;8.658;2023-03-16T02:02:22;100761.88;;;1.08;100.00
54854;BME280;40747;49.480;8.658;2023-03-16T02:05:31;100758.56;;;1.17;100.00
54854;BME280;40747;49.480;8.658;2023-03-16T02:07:58;100746.31;;;1.08;100.00
54854;BME280;40747;49.480;8.658;2023-03-16T02:10:26;100743.88;;;1.19;100.00
54854;BME280;40747;49.480;8.658;2023-03-16T02:12:52;100742.13;;;1.18;100.00
54854;BME280;40747;49.480;8.658;2023-03-16T02:15:18;100747.38;;;1.23;100.00
54854;BME280;40747;49.480;8.658;2023-03-16T02:17:45;100747.25;;;1.13;100.00
54854;BME280;40747;49.480;8.658;2023-03-16T02:22:54;100747.25;;;1.13;100.00
54854;BME280;40747;49.480;8.658;2023-03-16T02:25:23;100748.16;;;1.17;100.00
54854;BME280;40747;49.480;8.658;2023-03-16T02:28:05;100731.59;;;1.07;100.00
54854;BME280;40747;49.480;8.658;2023-03-16T02:30:32;100749.50;;;0.92;100.00
54854;BME280;40747;49.480;8.658;2023-03-16T02:32:58;100743.22;;;0.74;100.00
54854;BME280;40747;49.480;8.658;2023-03-16T02:35:23;100739.72;;;0.72;100.00
54854;BME280;40747;49.480;8.658;2023-03-16T02:37:48;100716.25;;;0.66;100.00
54854;BME280;40747;49.480;8.658;2023-03-16T02:40:21;100741.63;;;0.86;100.00
54854;BME280;40747;49.480;8.658;2023-03-16T02:42:53;100742.63;;;0.94;100.00
54854;BME280;40747;49.480;8.658;2023-03-16T02:45:22;100723.53;;;0.89;100.00
54854;BME280;40747;49.480;8.658;2023-03-16T02:47:52;100730.47;;;0.90;100.00
54854;BME280;40747;49.480;8.658;2023-03-16T02:50:18;100721.03;;;0.95;100.00
54854;BME280;40747;49.480;8.658;2023-03-16T02:52:43;100723.78;;;1.04;100.00
54854;BME280;40747;49.480;8.658;2023-03-16T02:55:08;100730.53;;;0.94;100.00
54854;BME280;40747;49.480;8.658;2023-03-16T02:57:34;100721.88;;;0.94;100.00
54854;BME280;40747;49.480;8.658;2023-03-16T02:59:59;100725.22;;;0.87;100.00
54854;BME280;40747;49.480;8.658;2023-03-16T03:02:25;100714.19;;;0.98;100.00
54854;BME280;40747;49.480;8.658;2023-03-16T03:04:51;100709.03;;;1.02;100.00
54854;BME280;40747;49.480;8.658;2023-03-16T03:07:19;100716.81;;;1.02;100.00
54854;BME280;40747;49.480;8.658;2023-03-16T03:09:44;100712.44;;;0.99;100.00
54854;BME280;40747;49.480;8.658;2023-03-16T03:12:10;100692.66;;;1.06;100.00
54854;BME280;40747;49.480;8.658;2023-03-16T03:14:36;100678.00;;;1.08;100.00
54854;BME280;40747;49.480;8.658;2023-03-16T03:17:05;100691.13;;;1.20;100.00
54854;BME280;40747;49.480;8.658;2023-03-16T03:19:32;100681.50;;;1.11;100.00
54854;BME280;40747;49.480;8.658;2023-03-16T03:21:57;100683.13;;;1.05;100.00
54854;BME280;40747;49.480;8.658;2023-03-16T03:24:23;100695.13;;;0.98;100.00
54854;BME280;40747;49.480;8.658;2023-03-16T03:26:48;100690.75;;;0.94;100.00
54854;BME280;40747;49.480;8.658;2023-03-16T03:29:14;100689.00;;;0.93;100.00
54854;BME280;40747;49.480;8.658;2023-03-16T03:31:39;100694.09;;;0.87;100.00
54854;BME280;40747;49.480;8.658;2023-03-16T03:34:04;100681.75;;;0.70;100.00
54854;BME280;40747;49.480;8.658;2023-03-16T03:36:30;100697.53;;;0.84;100.00
54854;BME280;40747;49.480;8.658;2023-03-16T03:38:56;100696.78;;;0.91;100.00
54854;BME280;40747;49.480;8.658;2023-03-16T03:41:21;100695.19;;;1.01;100.00
54854;BME280;40747;49.480;8.658;2023-03-16T03:43:46;100686.72;;;1.14;100.00
54854;BME280;40747;49.480;8.658;2023-03-16T03:46:11;100687.66;;;1.20;100.00
54854;BME280;40747;49.480;8.658;2023-03-16T03:48:37;100688.34;;;1.06;100.00
54854;BME280;40747;49.480;8.658;2023-03-16T03:51:02;100673.78;;;1.18;100.00
54854;BME280;40747;49.480;8.658;2023-03-16T03:53:28;100677.09;;;1.07;100.00
54854;BME280;40747;49.480;8.658;2023-03-16T03:55:53;100682.88;;;0.88;100.00
54854;BME280;40747;49.480;8.658;2023-03-16T03:58:18;100677.06;;;1.03;100.00
54854;BME280;40747;49.480;8.658;2023-03-16T04:00:43;100683.09;;;1.02;100.00
54854;BME280;40747;49.480;8.658;2023-03-16T04:03:09;100687.44;;;1.04;100.00
54854;BME280;40747;49.480;8.658;2023-03-16T04:05:34;100688.47;;;1.16;100.00
54854;BME280;40747;49.480;8.658;2023-03-16T04:07:59;100678.91;;;1.11;100.00
54854;BME280;40747;49.480;8.658;2023-03-16T04:10:26;100686.69;;;1.11;100.00
54854;BME280;40747;49.480;8.658;2023-03-16T04:12:54;100672.00;;;1.12;100.00
54854;BME280;40747;49.480;8.658;2023-03-16T04:15:20;100683.47;;;1.28;99.78
54854;BME280;40747;49.480;8.658;2023-03-16T04:17:46;100674.88;;;1.35;98.26
54854;BME280;40747;49.480;8.658;2023-03-16T04:20:12;100687.00;;;1.36;97.93
54854;BME280;40747;49.480;8.658;2023-03-16T04:22:42;100683.63;;;1.42;97.61
54854;BME280;40747;49.480;8.658;2023-03-16T04:25:14;100686.44;;;1.57;97.86
54854;BME280;40747;49.480;8.658;2023-03-16T04:27:41;100689.06;;;1.63;98.10
54854;BME280;40747;49.480;8.658;2023-03-16T04:30:09;100682.09;;;1.58;97.67
54854;BME280;40747;49.480;8.658;2023-03-16T04:32:35;100692.56;;;1.64;96.84
54854;BME280;40747;49.480;8.658;2023-03-16T04:35:01;100697.59;;;1.52;95.78
54854;BME280;40747;49.480;8.658;2023-03-16T04:37:26;100694.31;;;1.65;95.40
54854;BME280;40747;49.480;8.658;2023-03-16T04:39:51;100697.84;;;1.73;94.26
54854;BME280;40747;49.480;8.658;2023-03-16T04:42:16;100700.53;;;1.81;93.84
54854;BME280;40747;49.480;8.658;2023-03-16T04:44:41;100696.94;;;1.70;94.02
54854;BME280;40747;49.480;8.658;2023-03-16T04:47:12;100690.06;;;1.75;94.02
54854;BME280;40747;49.480;8.658;2023-03-16T04:49:37;100690.22;;;1.90;94.52
54854;BME280;40747;49.480;8.658;2023-03-16T04:52:03;100687.63;;;1.89;93.57
54854;BME280;40747;49.480;8.658;2023-03-16T04:54:29;100685.19;;;2.03;94.05
54854;BME280;40747;49.480;8.658;2023-03-16T04:56:55;100678.31;;;2.09;93.89
54854;BME280;40747;49.480;8.658;2023-03-16T04:59:20;100679.28;;;2.18;93.11
54854;BME280;40747;49.480;8.658;2023-03-16T05:01:46;100672.31;;;2.18;94.24
54854;BME280;40747;49.480;8.658;2023-03-16T05:04:12;100680.06;;;2.10;94.72
54854;BME280;40747;49.480;8.658;2023-03-16T05:06:37;100675.53;;;1.92;95.41
54854;BME280;40747;49.480;8.658;2023-03-16T05:09:03;100679.06;;;1.96;95.00
54854;BME280;40747;49.480;8.658;2023-03-16T05:11:30;100673.03;;;2.00;95.13
54854;BME280;40747;49.480;8.658;2023-03-16T05:13:55;100673.09;;;2.06;94.59
54854;BME280;40747;49.480;8.658;2023-03-16T05:16:20;100674.00;;;2.10;94.71
54854;BME280;40747;49.480;8.658;2023-03-16T05:18:46;100664.53;;;2.17;94.72
54854;BME280;40747;49.480;8.658;2023-03-16T05:21:11;100666.94;;;1.98;94.22
54854;BME280;40747;49.480;8.658;2023-03-16T05:23:37;100678.97;;;1.90;94.92
54854;BME280;40747;49.480;8.658;2023-03-16T05:26:02;100675.63;;;2.00;94.83
54854;BME280;40747;49.480;8.658;2023-03-16T05:28:28;100674.69;;;1.21;96.32
54854;BME280;40747;49.480;8.658;2023-03-16T05:30:54;100677.75;;;0.36;100.00
54854;BME280;40747;49.480;8.658;2023-03-16T05:33:20;100680.84;;;0.14;100.00
54854;BME280;40747;49.480;8.658;2023-03-16T05:35:46;100676.91;;;-0.12;100.00
54854;BME280;40747;49.480;8.658;2023-03-16T05:38:11;100680.34;;;-0.13;100.00
54854;BME280;40747;49.480;8.658;2023-03-16T05:40:37;100675.06;;;-0.18;100.00
54854;BME280;40747;49.480;8.658;2023-03-16T05:43:02;100676.91;;;-0.12;100.00
54854;BME280;40747;49.480;8.658;2023-03-16T05:45:29;100664.28;;;0.06;100.00
54854;BME280;40747;49.480;8.658;2023-03-16T05:47:54;100678.56;;;-0.16;100.00
54854;BME280;40747;49.480;8.658;2023-03-16T05:50:19;100677.47;;;-0.29;100.00
54854;BME280;40747;49.480;8.658;2023-03-16T05:52:45;100674.06;;;-0.26;100.00
54854;BME280;40747;49.480;8.658;2023-03-16T05:55:16;100663.41;;;0.04;100.00
54854;BME280;40747;49.480;8.658;2023-03-16T05:57:41;100657.53;;;0.14;100.00
54854;BME280;40747;49.480;8.658;2023-03-16T06:00:08;100652.34;;;0.14;100.00
54854;BME280;40747;49.480;8.658;2023-03-16T06:02:40;100642.41;;;0.39;100.00
54854;BME280;40747;49.480;8.658;2023-03-16T06:05:06;100640.44;;;0.82;100.00
54854;BME280;40747;49.480;8.658;2023-03-16T06:07:32;100636.63;;;0.57;100.00
54854;BME280;40747;49.480;8.658;2023-03-16T06:09:57;100641.28;;;0.78;100.00
54854;BME280;40747;49.480;8.658;2023-03-16T06:12:23;100638.06;;;0.98;100.00
54854;BME280;40747;49.480;8.658;2023-03-16T06:14:48;100632.72;;;0.86;100.00
54854;BME280;40747;49.480;8.658;2023-03-16T06:17:13;100632.84;;;0.93;100.00
54854;BME280;40747;49.480;8.658;2023-03-16T06:19:38;100630.19;;;0.90;100.00
54854;BME280;40747;49.480;8.658;2023-03-16T06:22:04;100635.38;;;0.92;100.00
54854;BME280;40747;49.480;8.658;2023-03-16T06:24:29;100629.25;;;0.87;100.00
54854;BME280;40747;49.480;8.658;2023-03-16T06:26:55;100621.13;;;1.25;100.00
54854;BME280;40747;49.480;8.658;2023-03-16T06:29:20;100628.38;;;1.54;100.00
54854;BME280;40747;49.480;8.658;2023-03-16T06:31:45;100626.03;;;1.75;100.00
54854;BME280;40747;49.480;8.658;2023-03-16T06:34:11;100630.59;;;2.01;100.00
54854;BME280;40747;49.480;8.658;2023-03-16T06:36:36;100634.25;;;2.20;98.91
54854;BME280;40747;49.480;8.658;2023-03-16T06:39:04;100634.25;;;2.25;97.93
54854;BME280;40747;49.480;8.658;2023-03-16T06:41:29;100627.38;;;2.30;96.47
54854;BME280;40747;49.480;8.658;2023-03-16T06:43:54;100634.38;;;2.40;96.69
54854;BME280;40747;49.480;8.658;2023-03-16T06:46:19;100616.22;;;2.46;96.57
54854;BME280;40747;49.480;8.658;2023-03-16T06:48:45;100629.34;;;2.60;97.54
54854;BME280;40747;49.480;8.658;2023-03-16T06:51:11;100642.44;;;2.74;96.69
54854;BME280;40747;49.480;8.658;2023-03-16T06:53:36;100636.44;;;2.82;96.56
54854;BME280;40747;49.480;8.658;2023-03-16T06:56:02;100641.75;;;3.05;97.37
54854;BME280;40747;49.480;8.658;2023-03-16T06:58:27;100596.50;;;2.78;95.73
54854;BME280;40747;49.480;8.658;2023-03-16T07:00:52;100635.69;;;3.06;94.87
54854;BME280;40747;49.480;8.658;2023-03-16T07:03:18;100629.69;;;3.25;94.32
54854;BME280;40747;49.480;8.658;2023-03-16T07:05:43;100642.78;;;3.41;91.44
54854;BME280;40747;49.480;8.658;2023-03-16T07:08:08;100640.22;;;3.46;90.57
54854;BME280;40747;49.480;8.658;2023-03-16T07:10:34;100623.75;;;3.68;91.84
54854;BME280;40747;49.480;8.658;2023-03-16T07:12:59;100639.47;;;4.10;91.70
54854;BME280;40747;49.480;8.658;2023-03-16T07:15:24;100634.28;;;4.36;90.96
54854;BME280;40747;49.480;8.658;2023-03-16T07:17:51;100641.22;;;4.43;89.49
54854;BME280;40747;49.480;8.658;2023-03-16T07:20:16;100651.66;;;4.64;88.55
54854;BME280;40747;49.480;8.658;2023-03-16T07:22:42;100644.63;;;5.00;86.21
54854;BME280;40747;49.480;8.658;2023-03-16T07:25:08;100645.47;;;5.03;85.68
54854;BME280;40747;49.480;8.658;2023-03-16T07:27:35;100650.69;;;5.14;83.21
54854;BME280;40747;49.480;8.658;2023-03-16T07:30:00;100649.75;;;5.38;82.09
54854;BME280;40747;49.480;8.658;2023-03-16T07:32:26;100639.09;;;5.74;81.64
54854;BME280;40747;49.480;8.658;2023-03-16T07:34:51;100644.25;;;5.86;81.36
54854;BME280;40747;49.480;8.658;2023-03-16T07:37:17;100648.56;;;5.94;81.36
54854;BME280;40747;49.480;8.658;2023-03-16T07:39:43;100652.00;;;6.06;81.85
54854;BME280;40747;49.480;8.658;2023-03-16T07:42:08;100653.78;;;6.03;79.60
54854;BME280;40747;49.480;8.658;2023-03-16T07:44:34;100660.50;;;6.36;77.83
54854;BME280;40747;49.480;8.658;2023-03-16T07:46:59;100654.19;;;6.64;78.04
54854;BME280;40747;49.480;8.658;2023-03-16T07:49:25;100647.00;;;6.83;78.26
54854;BME280;40747;49.480;8.658;2023-03-16T07:51:50;100654.72;;;6.98;76.40
54854;BME280;40747;49.480;8.658;2023-03-16T07:54:15;100659.44;;;7.42;75.86
54854;BME280;40747;49.480;8.658;2023-03-16T07:56:40;100652.13;;;7.68;73.24
54854;BME280;40747;49.480;8.658;2023-03-16T07:59:06;100642.91;;;8.03;74.45
54854;BME280;40747;49.480;8.658;2023-03-16T08:01:32;100640.28;;;8.03;73.40
54854;BME280;40747;49.480;8.658;2023-03-16T08:03:59;100634.81;;;8.17;72.83
54854;BME280;40747;49.480;8.658;2023-03-16T08:06:25;100630.19;;;8.32;70.18
54854;BME280;40747;49.480;8.658;2023-03-16T08:08:51;100634.53;;;8.34;72.25
54854;BME280;40747;49.480;8.658;2023-03-16T08:11:16;100622.56;;;8.69;70.73
54854;BME280;40747;49.480;8.658;2023-03-16T08:13:50;100625.63;;;8.95;69.84
54854;BME280;40747;49.480;8.658;2023-03-16T08:16:22;100625.03;;;9.24;67.25
54854;BME280;40747;49.480;8.658;2023-03-16T08:18:47;100626.13;;;9.56;66.11
54854;BME280;40747;49.480;8.658;2023-03-16T08:21:15;100627.03;;;9.57;66.06
54854;BME280;40747;49.480;8.658;2023-03-16T08:23:41;100624.13;;;9.67;66.87
54854;BME280;40747;49.480;8.658;2023-03-16T08:26:08;100624.44;;;9.54;64.66
54854;BME280;40747;49.480;8.658;2023-03-16T08:28:34;100621.78;;;9.94;64.18
54854;BME280;40747;49.480;8.658;2023-03-16T08:31:00;100604.97;;;10.38;63.38
54854;BME280;40747;49.480;8.658;2023-03-16T08:33:26;100612.13;;;10.67;63.13
54854;BME280;40747;49.480;8.658;2023-03-16T08:35:51;100624.75;;;10.54;61.21
54854;BME280;40747;49.480;8.658;2023-03-16T08:38:17;100618.19;;;10.71;61.87
54854;BME280;40747;49.480;8.658;2023-03-16T08:40:43;100620.41;;;10.86;60.70
54854;BME280;40747;49.480;8.658;2023-03-16T08:43:13;100612.09;;;11.02;59.81
54854;BME280;40747;49.480;8.658;2023-03-16T08:45:39;100612.47;;;11.19;59.90
54854;BME280;40747;49.480;8.658;2023-03-16T08:48:04;100604.28;;;11.58;58.88
54854;BME280;40747;49.480;8.658;2023-03-16T08:50:29;100606.44;;;11.74;60.27
54854;BME280;40747;49.480;8.658;2023-03-16T08:52:55;100602.91;;;11.75;57.26
54854;BME280;40747;49.480;8.658;2023-03-16T08:55:20;100598.97;;;12.17;59.65
54854;BME280;40747;49.480;8.658;2023-03-16T08:57:45;100589.84;;;12.27;56.74
54854;BME280;40747;49.480;8.658;2023-03-16T09:00:13;100591.72;;;12.23;56.35
54854;BME280;40747;49.480;8.658;2023-03-16T09:02:40;100588.34;;;12.18;56.22
54854;BME280;40747;49.480;8.658;2023-03-16T09:05:10;100581.78;;;12.03;56.15
54854;BME280;40747;49.480;8.658;2023-03-16T09:07:36;100580.50;;;12.69;57.35
54854;BME280;40747;49.480;8.658;2023-03-16T09:10:04;100580.63;;;13.13;54.96
54854;BME280;40747;49.480;8.658;2023-03-16T09:12:34;100578.75;;;13.17;53.33
54854;BME280;40747;49.480;8.658;2023-03-16T09:14:59;100579.28;;;13.50;53.39
54854;BME280;40747;49.480;8.658;2023-03-16T09:17:25;100581.56;;;13.36;52.14
54854;BME280;40747;49.480;8.658;2023-03-16T09:19:51;100593.34;;;13.27;50.89
54854;BME280;40747;49.480;8.658;2023-03-16T09:22:17;100588.50;;;13.40;53.03
54854;BME280;40747;49.480;8.658;2023-03-16T09:24:43;100578.16;;;12.85;53.13
54854;BME280;40747;49.480;8.658;2023-03-16T09:27:08;100584.97;;;12.92;51.57
54854;BME280;40747;49.480;8.658;2023-03-16T09:29:34;100585.34;;;13.28;51.95
54854;BME280;40747;49.480;8.658;2023-03-16T09:32:00;100583.97;;;13.66;54.36
54854;BME280;40747;49.480;8.658;2023-03-16T09:34:26;100589.31;;;13.42;49.80
54854;BME280;40747;49.480;8.658;2023-03-16T09:36:51;100584.31;;;13.80;51.81
54854;BME280;40747;49.480;8.658;2023-03-16T09:39:17;100586.38;;;14.16;51.63
54854;BME280;40747;49.480;8.658;2023-03-16T09:42:15;100583.53;;;14.21;50.46
54854;BME280;40747;49.480;8.658;2023-03-16T09:44:47;100589.84;;;14.39;52.46
54854;BME280;40747;49.480;8.658;2023-03-16T09:47:17;100580.69;;;14.25;50.24
54854;BME280;40747;49.480;8.658;2023-03-16T09:49:48;100575.78;;;14.16;49.00
54854;BME280;40747;49.480;8.658;2023-03-16T09:52:27;100570.16;;;13.81;48.20
54854;BME280;40747;49.480;8.658;2023-03-16T09:55:21;100566.94;;;13.73;50.14
54854;BME280;40747;49.480;8.658;2023-03-16T09:57:51;100571.34;;;13.26;53.65
54854;BME280;40747;49.480;8.658;2023-03-16T10:00:26;100563.56;;;13.22;54.06
54854;BME280;40747;49.480;8.658;2023-03-16T10:03:22;100554.34;;;13.32;51.07
54854;BME280;40747;49.480;8.658;2023-03-16T10:05:58;100560.19;;;13.42;50.56
54854;BME280;40747;49.480;8.658;2023-03-16T10:08:29;100550.94;;;13.30;50.37
54854;BME280;40747;49.480;8.658;2023-03-16T10:11:23;100549.88;;;13.58;50.88
54854;BME280;40747;49.480;8.658;2023-03-16T10:14:26;100566.31;;;13.88;52.97
54854;BME280;40747;49.480;8.658;2023-03-16T10:17:05;100561.59;;;13.97;51.50
54854;BME280;40747;49.480;8.658;2023-03-16T10:19:37;100544.47;;;13.61;48.98
54854;BME280;40747;49.480;8.658;2023-03-16T10:22:21;100538.06;;;13.67;48.95
54854;BME280;40747;49.480;8.658;2023-03-16T10:25:11;100544.69;;;13.99;50.99
54854;BME280;40747;49.480;8.658;2023-03-16T10:27:41;100551.44;;;14.29;50.80
54854;BME280;40747;49.480;8.658;2023-03-16T10:30:27;100542.41;;;14.33;51.60
54854;BME280;40747;49.480;8.658;2023-03-16T10:32:54;100544.63;;;14.01;49.42
54854;BME280;40747;49.480;8.658;2023-03-16T10:35:33;100542.34;;;14.14;50.21
54854;BME280;40747;49.480;8.658;2023-03-16T10:38:02;100545.22;;;13.65;53.34
54854;BME280;40747;49.480;8.658;2023-03-16T10:40:30;100542.03;;;13.77;49.92
54854;BME280;40747;49.480;8.658;2023-03-16T10:43:07;100551.13;;;13.49;51.25
54854;BME280;40747;49.480;8.658;2023-03-16T10:45:36;100547.84;;;13.87;49.69
54854;BME280;40747;49.480;8.658;2023-03-16T10:48:12;100547.63;;;14.14;53.07
54854;BME280;40747;49.480;8.658;2023-03-16T10:50:39;100544.63;;;14.01;49.47
54854;BME280;40747;49.480;8.658;2023-03-16T10:53:14;100539.94;;;14.07;48.72
54854;BME280;40747;49.480;8.658;2023-03-16T10:55:42;100525.00;;;13.84;50.26
54854;BME280;40747;49.480;8.658;2023-03-16T10:58:08;100541.88;;;13.36;53.63
54854;BME280;40747;49.480;8.658;2023-03-16T11:00:36;100537.19;;;13.44;52.91
54854;BME280;40747;49.480;8.658;2023-03-16T11:03:17;100524.25;;;13.36;52.05
54854;BME280;40747;49.480;8.658;2023-03-16T11:05:47;100521.78;;;13.98;49.78
54854;BME280;40747;49.480;8.658;2023-03-16T11:08:14;100515.97;;;14.11;50.06
54854;BME280;40747;49.480;8.658;2023-03-16T11:10:45;100512.13;;;14.18;48.39
54854;BME280;40747;49.480;8.658;2023-03-16T11:13:16;100516.50;;;14.39;50.08
54854;BME280;40747;49.480;8.658;2023-03-16T11:15:53;100514.56;;;14.84;50.09
54854;BME280;40747;49.480;8.658;2023-03-16T11:18:45;100511.13;;;14.82;48.64
54854;BME280;40747;49.480;8.658;2023-03-16T11:23:48;100504.75;;;14.86;47.22
54854;BME280;40747;49.480;8.658;2023-03-16T11:26:23;100495.25;;;15.01;48.63
54854;BME280;40747;49.480;8.658;2023-03-16T11:29:17;100504.72;;;14.26;49.69
54854;BME280;40747;49.480;8.658;2023-03-16T11:32:04;100506.75;;;14.19;48.84
54854;BME280;40747;49.480;8.658;2023-03-16T11:34:31;100499.22;;;14.10;49.94
54854;BME280;40747;49.480;8.658;2023-03-16T11:44:59;100483.31;;;14.10;48.37
54854;BME280;40747;49.480;8.658;2023-03-16T11:50:33;100480.44;;;13.73;48.58
54854;BME280;40747;49.480;8.658;2023-03-16T11:55:44;100475.63;;;14.45;48.35
54854;BME280;40747;49.480;8.658;2023-03-16T12:04:14;100470.63;;;14.18;47.66
54854;BME280;40747;49.480;8.658;2023-03-16T12:07:04;100466.97;;;14.41;47.15
54854;BME280;40747;49.480;8.658;2023-03-16T12:09:48;100457.19;;;14.42;44.30
54854;BME280;40747;49.480;8.658;2023-03-16T12:12:43;100459.09;;;14.40;46.05
54854;BME280;40747;49.480;8.658;2023-03-16T12:15:25;100452.28;;;14.53;44.91
54854;BME280;40747;49.480;8.658;2023-03-16T12:17:57;100453.00;;;14.57;47.86
54854;BME280;40747;49.480;8.658;2023-03-16T12:20:40;100452.00;;;14.80;47.30
54854;BME280;40747;49.480;8.658;2023-03-16T12:23:28;100437.72;;;14.43;46.82
54854;BME280;40747;49.480;8.658;2023-03-16T12:25:56;100435.53;;;14.13;45.78
54854;BME280;40747;49.480;8.658;2023-03-16T12:28:26;100441.25;;;14.23;47.96
54854;BME280;40747;49.480;8.658;2023-03-16T12:46:44;100417.22;;;14.28;44.77
54854;BME280;40747;49.480;8.658;2023-03-16T12:49:13;100415.06;;;14.36;45.95
54854;BME280;40747;49.480;8.658;2023-03-16T12:51:41;100421.66;;;14.27;48.14
54854;BME280;40747;49.480;8.658;2023-03-16T12:54:21;100415.09;;;14.15;46.13
54854;BME280;40747;49.480;8.658;2023-03-16T12:56:48;100412.28;;;13.79;46.53
54854;BME280;40747;49.480;8.658;2023-03-16T12:59:16;100408.03;;;14.16;46.38
54854;BME280;40747;49.480;8.658;2023-03-16T13:01:43;100398.72;;;14.07;48.23
54854;BME280;40747;49.480;8.658;2023-03-16T13:04:21;100403.34;;;13.81;48.05
54854;BME280;40747;49.480;8.658;2023-03-16T13:07:08;100391.94;;;13.58;48.32
54854;BME280;40747;49.480;8.658;2023-03-16T13:09:40;100391.22;;;13.55;51.71
54854;BME280;40747;49.480;8.658;2023-03-16T13:12:08;100380.44;;;13.59;47.93
54854;BME280;40747;49.480;8.658;2023-03-16T13:14:36;100380.38;;;13.82;49.14
54854;BME280;40747;49.480;8.658;2023-03-16T13:19:40;100380.16;;;13.66;48.54
54854;BME280;40747;49.480;8.658;2023-03-16T13:25:14;100370.84;;;14.38;47.54
54854;BME280;40747;49.480;8.658;2023-03-16T13:27:40;100378.84;;;14.36;48.86
54854;BME280;40747;49.480;8.658;2023-03-16T13:30:21;100376.09;;;14.19;47.13
54854;BME280;40747;49.480;8.658;2023-03-16T13:32:52;100371.66;;;14.00;48.12
54854;BME280;40747;49.480;8.658;2023-03-16T13:35:18;100371.97;;;13.72;49.71
54854;BME280;40747;49.480;8.658;2023-03-16T13:37:45;100366.00;;;13.46;50.51
54854;BME280;40747;49.480;8.658;2023-03-16T13:40:23;100367.72;;;13.47;47.98
54854;BME280;40747;49.480;8.658;2023-03-16T13:42:49;100364.81;;;13.74;47.19
54854;BME280;40747;49.480;8.658;2023-03-16T13:45:27;100355.78;;;13.99;47.20
54854;BME280;40747;49.480;8.658;2023-03-16T13:47:55;100349.13;;;14.30;48.17
54854;BME280;40747;49.480;8.658;2023-03-16T13:50:20;100347.47;;;14.08;49.43
54854;BME280;40747;49.480;8.658;2023-03-16T13:52:57;100334.00;;;14.32;47.66
54854;BME280;40747;49.480;8.658;2023-03-16T13:55:31;100336.22;;;14.60;47.41